sensor_id;sensor_type;location;lat;lon;timestamp;P1;durP1;ratioP1;P2;durP2;ratioP2
46216;SDS011;47258;59.424;13.482;2023-03-01T00:01:11;1.23;;;0.37;;
46216;SDS011;47258;59.424;13.482;2023-03-01T00:03:39;2.40;;;0.47;;
46216;SDS011;47258;59.424;13.482;2023-03-01T00:06:07;1.17;;;0.28;;
46216;SDS011;47258;59.424;13.482;2023-03-01T00:08:34;2.50;;;0.38;;
46216;SDS011;47258;59.424;13.482;2023-03-01T00:11:03;0.20;;;0.20;;
46216;SDS011;47258;59.424;13.482;2023-03-01T00:13:31;0.30;;;0.30;;
46216;SDS011;47258;59.424;13.482;2023-03-01T00:16:02;0.20;;;0.20;;
46216;SDS011;47258;59.424;13.482;2023-03-01T00:18:30;0.30;;;0.30;;
46216;SDS011;47258;59.424;13.482;2023-03-01T00:20:57;0.22;;;0.22;;
46216;SDS011;47258;59.424;13.482;2023-03-01T00:23:25;0.85;;;0.22;;
46216;SDS011;47258;59.424;13.482;2023-03-01T00:25:52;0.40;;;0.40;;
46216;SDS011;47258;59.424;13.482;2023-03-01T00:28:20;0.75;;;0.30;;
46216;SDS011;47258;59.424;13.482;2023-03-01T00:30:47;0.10;;;0.10;;
46216;SDS011;47258;59.424;13.482;2023-03-01T00:33:16;0.30;;;0.30;;
46216;SDS011;47258;59.424;13.482;2023-03-01T00:35:43;0.33;;;0.20;;
46216;SDS011;47258;59.424;13.482;2023-03-01T00:38:10;0.20;;;0.20;;
46216;SDS011;47258;59.424;13.482;2023-03-01T00:40:37;0.10;;;0.10;;
46216;SDS011;47258;59.424;13.482;2023-03-01T00:43:04;0.57;;;0.30;;
46216;SDS011;47258;59.424;13.482;2023-03-01T00:45:32;0.20;;;0.20;;
46216;SDS011;47258;59.424;13.482;2023-03-01T00:47:59;0.25;;;0.15;;
46216;SDS011;47258;59.424;13.482;2023-03-01T00:50:28;0.52;;;0.30;;
46216;SDS011;47258;59.424;13.482;2023-03-01T00:52:55;1.85;;;0.50;;
46216;SDS011;47258;59.424;13.482;2023-03-01T00:55:23;1.35;;;0.32;;
46216;SDS011;47258;59.424;13.482;2023-03-01T00:57:51;0.30;;;0.20;;
46216;SDS011;47258;59.424;13.482;2023-03-01T01:00:18;0.10;;;0.10;;
46216;SDS011;47258;59.424;13.482;2023-03-01T01:02:46;0.85;;;0.15;;
46216;SDS011;47258;59.424;13.482;2023-03-01T01:05:13;0.95;;;0.30;;
46216;SDS011;47258;59.424;13.482;2023-03-01T01:07:47;0.35;;;0.30;;
46216;SDS011;47258;59.424;13.482;2023-03-01T01:10:15;1.15;;;0.30;;
46216;SDS011;47258;59.424;13.482;2023-03-01T01:12:46;0.10;;;0.10;;
46216;SDS011;47258;59.424;13.482;2023-03-01T01:15:13;0.28;;;0.28;;
46216;SDS011;47258;59.424;13.482;2023-03-01T01:17:41;0.20;;;0.20;;
46216;SDS011;47258;59.424;13.482;2023-03-01T01:20:08;0.22;;;0.20;;
46216;SDS011;47258;59.424;13.482;2023-03-01T01:22:36;0.75;;;0.17;;
46216;SDS011;47258;59.424;13.482;2023-03-01T01:25:05;0.20;;;0.20;;
46216;SDS011;47258;59.424;13.482;2023-03-01T01:30:00;0.38;;;0.30;;
46216;SDS011;47258;59.424;13.482;2023-03-01T01:32:27;0.52;;;0.20;;
46216;SDS011;47258;59.424;13.482;2023-03-01T01:34:55;0.20;;;0.20;;
46216;SDS011;47258;59.424;13.482;2023-03-01T01:37:22;0.10;;;0.10;;
46216;SDS011;47258;59.424;13.482;2023-03-01T01:39:56;0.40;;;0.10;;
46216;SDS011;47258;59.424;13.482;2023-03-01T01:42:25;0.10;;;0.10;;
46216;SDS011;47258;59.424;13.482;2023-03-01T01:47:53;1.88;;;0.28;;
46216;SDS011;47258;59.424;13.482;2023-03-01T01:50:25;0.20;;;0.20;;
46216;SDS011;47258;59.424;13.482;2023-03-01T01:53:03;0.20;;;0.10;;
46216;SDS011;47258;59.424;13.482;2023-03-01T01:55:32;1.90;;;0.17;;
46216;SDS011;47258;59.424;13.482;2023-03-01T01:58:04;0.13;;;0.13;;
46216;SDS011;47258;59.424;13.482;2023-03-01T02:00:34;3.53;;;0.52;;
46216;SDS011;47258;59.424;13.482;2023-03-01T02:03:03;0.82;;;0.82;;
46216;SDS011;47258;59.424;13.482;2023-03-01T02:05:35;0.20;;;0.20;;
46216;SDS011;47258;59.424;13.482;2023-03-01T02:08:08;0.17;;;0.17;;
46216;SDS011;47258;59.424;13.482;2023-03-01T02:10:37;0.88;;;0.20;;
46216;SDS011;47258;59.424;13.482;2023-03-01T02:13:06;0.98;;;0.30;;
46216;SDS011;47258;59.424;13.482;2023-03-01T02:15:34;1.25;;;0.30;;
46216;SDS011;47258;59.424;13.482;2023-03-01T02:18:03;0.10;;;0.10;;
46216;SDS011;47258;59.424;13.482;2023-03-01T02:20:33;1.35;;;0.20;;
46216;SDS011;47258;59.424;13.482;2023-03-01T02:23:04;0.75;;;0.40;;
46216;SDS011;47258;59.424;13.482;2023-03-01T02:25:35;0.10;;;0.10;;
46216;SDS011;47258;59.424;13.482;2023-03-01T02:28:08;0.98;;;0.20;;
46216;SDS011;47258;59.424;13.482;2023-03-01T02:30:45;0.20;;;0.20;;
46216;SDS011;47258;59.424;13.482;2023-03-01T02:33:29;0.15;;;0.15;;
46216;SDS011;47258;59.424;13.482;2023-03-01T02:35:58;0.63;;;0.40;;
46216;SDS011;47258;59.424;13.482;2023-03-01T02:38:26;0.40;;;0.20;;
46216;SDS011;47258;59.424;13.482;2023-03-01T02:40:55;0.30;;;0.30;;
46216;SDS011;47258;59.424;13.482;2023-03-01T02:43:26;1.50;;;0.22;;
46216;SDS011;47258;59.424;13.482;2023-03-01T02:45:57;0.20;;;0.20;;
46216;SDS011;47258;59.424;13.482;2023-03-01T02:48:37;0.45;;;0.20;;
46216;SDS011;47258;59.424;13.482;2023-03-01T02:51:09;1.23;;;0.40;;
46216;SDS011;47258;59.424;13.482;2023-03-01T02:53:46;2.40;;;0.70;;
46216;SDS011;47258;59.424;13.482;2023-03-01T02:56:23;4.75;;;0.50;;
46216;SDS011;47258;59.424;13.482;2023-03-01T02:58:51;0.50;;;0.50;;
46216;SDS011;47258;59.424;13.482;2023-03-01T03:01:19;0.32;;;0.30;;
46216;SDS011;47258;59.424;13.482;2023-03-01T03:03:47;0.90;;;0.47;;
46216;SDS011;47258;59.424;13.482;2023-03-01T03:06:14;0.25;;;0.25;;
46216;SDS011;47258;59.424;13.482;2023-03-01T03:08:41;0.60;;;0.35;;
46216;SDS011;47258;59.424;13.482;2023-03-01T03:11:09;0.22;;;0.22;;
46216;SDS011;47258;59.424;13.482;2023-03-01T03:13:36;0.25;;;0.25;;
46216;SDS011;47258;59.424;13.482;2023-03-01T03:16:14;0.20;;;0.20;;
46216;SDS011;47258;59.424;13.482;2023-03-01T03:18:41;0.73;;;0.40;;
46216;SDS011;47258;59.424;13.482;2023-03-01T03:21:08;0.30;;;0.30;;
46216;SDS011;47258;59.424;13.482;2023-03-01T03:23:37;0.20;;;0.20;;
46216;SDS011;47258;59.424;13.482;2023-03-01T03:26:04;0.60;;;0.30;;
46216;SDS011;47258;59.424;13.482;2023-03-01T03:28:32;0.30;;;0.20;;
46216;SDS011;47258;59.424;13.482;2023-03-01T03:31:00;0.77;;;0.50;;
46216;SDS011;47258;59.424;13.482;2023-03-01T03:33:30;0.32;;;0.32;;
46216;SDS011;47258;59.424;13.482;2023-03-01T03:35:57;0.60;;;0.60;;
46216;SDS011;47258;59.424;13.482;2023-03-01T03:38:24;0.43;;;0.43;;
46216;SDS011;47258;59.424;13.482;2023-03-01T03:40:54;0.57;;;0.30;;
46216;SDS011;47258;59.424;13.482;2023-03-01T03:43:28;1.25;;;0.30;;
46216;SDS011;47258;59.424;13.482;2023-03-01T03:45:55;0.88;;;0.55;;
46216;SDS011;47258;59.424;13.482;2023-03-01T03:48:23;1.05;;;0.50;;
46216;SDS011;47258;59.424;13.482;2023-03-01T03:50:53;0.80;;;0.50;;
46216;SDS011;47258;59.424;13.482;2023-03-01T03:53:21;0.40;;;0.40;;
46216;SDS011;47258;59.424;13.482;2023-03-01T03:55:50;0.65;;;0.40;;
46216;SDS011;47258;59.424;13.482;2023-03-01T03:58:18;3.25;;;0.68;;
46216;SDS011;47258;59.424;13.482;2023-03-01T04:00:47;0.33;;;0.33;;
46216;SDS011;47258;59.424;13.482;2023-03-01T04:03:16;0.63;;;0.52;;
46216;SDS011;47258;59.424;13.482;2023-03-01T04:05:45;0.60;;;0.60;;
46216;SDS011;47258;59.424;13.482;2023-03-01T04:08:16;1.65;;;0.40;;
46216;SDS011;47258;59.424;13.482;2023-03-01T04:10:46;1.65;;;0.30;;
46216;SDS011;47258;59.424;13.482;2023-03-01T04:13:14;0.43;;;0.43;;
46216;SDS011;47258;59.424;13.482;2023-03-01T04:15:44;0.90;;;0.73;;
46216;SDS011;47258;59.424;13.482;2023-03-01T04:18:12;1.85;;;0.20;;
46216;SDS011;47258;59.424;13.482;2023-03-01T04:20:41;0.17;;;0.17;;
46216;SDS011;47258;59.424;13.482;2023-03-01T04:23:10;0.35;;;0.30;;
46216;SDS011;47258;59.424;13.482;2023-03-01T04:25:42;0.40;;;0.40;;
46216;SDS011;47258;59.424;13.482;2023-03-01T04:28:19;1.05;;;0.95;;
46216;SDS011;47258;59.424;13.482;2023-03-01T04:30:46;0.60;;;0.35;;
46216;SDS011;47258;59.424;13.482;2023-03-01T04:33:13;0.40;;;0.20;;
46216;SDS011;47258;59.424;13.482;2023-03-01T04:35:40;1.77;;;0.70;;
46216;SDS011;47258;59.424;13.482;2023-03-01T04:38:07;2.00;;;0.68;;
46216;SDS011;47258;59.424;13.482;2023-03-01T04:40:35;0.28;;;0.28;;
46216;SDS011;47258;59.424;13.482;2023-03-01T04:43:04;0.50;;;0.40;;
46216;SDS011;47258;59.424;13.482;2023-03-01T04:45:31;0.70;;;0.57;;
46216;SDS011;47258;59.424;13.482;2023-03-01T04:48:00;0.20;;;0.20;;
46216;SDS011;47258;59.424;13.482;2023-03-01T04:50:27;0.88;;;0.38;;
46216;SDS011;47258;59.424;13.482;2023-03-01T04:52:55;0.32;;;0.20;;
46216;SDS011;47258;59.424;13.482;2023-03-01T04:55:23;0.32;;;0.32;;
46216;SDS011;47258;59.424;13.482;2023-03-01T04:57:51;0.98;;;0.30;;
46216;SDS011;47258;59.424;13.482;2023-03-01T05:00:21;0.68;;;0.40;;
46216;SDS011;47258;59.424;13.482;2023-03-01T05:02:49;1.27;;;0.40;;
46216;SDS011;47258;59.424;13.482;2023-03-01T05:05:23;1.85;;;1.23;;
46216;SDS011;47258;59.424;13.482;2023-03-01T05:07:53;0.70;;;0.70;;
46216;SDS011;47258;59.424;13.482;2023-03-01T05:10:21;3.13;;;0.60;;
46216;SDS011;47258;59.424;13.482;2023-03-01T05:12:49;0.45;;;0.45;;
46216;SDS011;47258;59.424;13.482;2023-03-01T05:15:17;8.63;;;0.60;;
46216;SDS011;47258;59.424;13.482;2023-03-01T05:17:45;0.30;;;0.30;;
46216;SDS011;47258;59.424;13.482;2023-03-01T05:20:12;0.88;;;0.75;;
46216;SDS011;47258;59.424;13.482;2023-03-01T05:22:40;0.80;;;0.30;;
46216;SDS011;47258;59.424;13.482;2023-03-01T05:25:07;0.40;;;0.40;;
46216;SDS011;47258;59.424;13.482;2023-03-01T05:27:34;0.77;;;0.50;;
46216;SDS011;47258;59.424;13.482;2023-03-01T05:30:01;3.95;;;0.77;;
46216;SDS011;47258;59.424;13.482;2023-03-01T05:32:39;1.23;;;0.60;;
46216;SDS011;47258;59.424;13.482;2023-03-01T05:35:09;2.28;;;0.52;;
46216;SDS011;47258;59.424;13.482;2023-03-01T05:37:38;0.52;;;0.40;;
46216;SDS011;47258;59.424;13.482;2023-03-01T05:42:41;0.28;;;0.25;;
46216;SDS011;47258;59.424;13.482;2023-03-01T05:45:09;2.28;;;1.67;;
46216;SDS011;47258;59.424;13.482;2023-03-01T05:47:38;1.50;;;0.50;;
46216;SDS011;47258;59.424;13.482;2023-03-01T05:50:10;0.30;;;0.30;;
46216;SDS011;47258;59.424;13.482;2023-03-01T05:52:43;0.43;;;0.43;;
46216;SDS011;47258;59.424;13.482;2023-03-01T05:55:10;3.58;;;1.25;;
46216;SDS011;47258;59.424;13.482;2023-03-01T05:57:37;0.50;;;0.50;;
46216;SDS011;47258;59.424;13.482;2023-03-01T06:00:04;1.23;;;0.60;;
46216;SDS011;47258;59.424;13.482;2023-03-01T06:02:32;0.20;;;0.20;;
46216;SDS011;47258;59.424;13.482;2023-03-01T06:04:59;2.33;;;0.50;;
46216;SDS011;47258;59.424;13.482;2023-03-01T06:07:28;1.80;;;0.50;;
46216;SDS011;47258;59.424;13.482;2023-03-01T06:09:55;0.45;;;0.35;;
46216;SDS011;47258;59.424;13.482;2023-03-01T06:12:23;1.33;;;0.65;;
46216;SDS011;47258;59.424;13.482;2023-03-01T06:14:50;2.45;;;0.50;;
46216;SDS011;47258;59.424;13.482;2023-03-01T06:17:17;4.57;;;0.47;;
46216;SDS011;47258;59.424;13.482;2023-03-01T06:19:44;2.47;;;0.60;;
46216;SDS011;47258;59.424;13.482;2023-03-01T06:22:12;3.00;;;0.60;;
46216;SDS011;47258;59.424;13.482;2023-03-01T06:24:40;0.57;;;0.57;;
46216;SDS011;47258;59.424;13.482;2023-03-01T06:27:07;2.15;;;0.73;;
46216;SDS011;47258;59.424;13.482;2023-03-01T06:29:34;2.58;;;0.70;;
46216;SDS011;47258;59.424;13.482;2023-03-01T06:32:02;0.45;;;0.43;;
46216;SDS011;47258;59.424;13.482;2023-03-01T06:34:29;0.70;;;0.50;;
46216;SDS011;47258;59.424;13.482;2023-03-01T06:36:57;3.30;;;0.50;;
46216;SDS011;47258;59.424;13.482;2023-03-01T06:39:24;0.47;;;0.45;;
46216;SDS011;47258;59.424;13.482;2023-03-01T06:41:52;1.27;;;0.47;;
46216;SDS011;47258;59.424;13.482;2023-03-01T06:44:19;2.38;;;0.30;;
46216;SDS011;47258;59.424;13.482;2023-03-01T06:46:46;2.20;;;0.40;;
46216;SDS011;47258;59.424;13.482;2023-03-01T06:49:13;0.65;;;0.30;;
46216;SDS011;47258;59.424;13.482;2023-03-01T06:51:41;0.45;;;0.45;;
46216;SDS011;47258;59.424;13.482;2023-03-01T06:54:08;0.95;;;0.38;;
46216;SDS011;47258;59.424;13.482;2023-03-01T06:56:35;0.55;;;0.55;;
46216;SDS011;47258;59.424;13.482;2023-03-01T06:59:04;0.88;;;0.75;;
46216;SDS011;47258;59.424;13.482;2023-03-01T07:01:31;38.35;;;17.70;;
46216;SDS011;47258;59.424;13.482;2023-03-01T07:03:58;68.57;;;30.50;;
46216;SDS011;47258;59.424;13.482;2023-03-01T07:06:25;43.08;;;18.77;;
46216;SDS011;47258;59.424;13.482;2023-03-01T07:08:52;29.23;;;12.23;;
46216;SDS011;47258;59.424;13.482;2023-03-01T07:11:19;33.92;;;15.00;;
46216;SDS011;47258;59.424;13.482;2023-03-01T07:13:46;14.95;;;7.70;;
46216;SDS011;47258;59.424;13.482;2023-03-01T07:16:15;2.15;;;1.45;;
46216;SDS011;47258;59.424;13.482;2023-03-01T07:18:42;3.45;;;1.20;;
46216;SDS011;47258;59.424;13.482;2023-03-01T07:21:09;3.15;;;1.63;;
46216;SDS011;47258;59.424;13.482;2023-03-01T07:26:05;1.38;;;0.47;;
46216;SDS011;47258;59.424;13.482;2023-03-01T07:28:32;1.65;;;0.40;;
46216;SDS011;47258;59.424;13.482;2023-03-01T07:31:01;0.50;;;0.50;;
46216;SDS011;47258;59.424;13.482;2023-03-01T07:33:30;5.05;;;1.05;;
46216;SDS011;47258;59.424;13.482;2023-03-01T07:35:57;0.30;;;0.30;;
46216;SDS011;47258;59.424;13.482;2023-03-01T07:38:24;1.75;;;0.50;;
46216;SDS011;47258;59.424;13.482;2023-03-01T07:40:51;1.50;;;0.73;;
46216;SDS011;47258;59.424;13.482;2023-03-01T07:43:19;2.72;;;0.50;;
46216;SDS011;47258;59.424;13.482;2023-03-01T07:45:46;0.65;;;0.65;;
46216;SDS011;47258;59.424;13.482;2023-03-01T07:48:13;3.20;;;0.60;;
46216;SDS011;47258;59.424;13.482;2023-03-01T07:50:41;5.30;;;0.65;;
46216;SDS011;47258;59.424;13.482;2023-03-01T07:53:09;5.38;;;1.20;;
46216;SDS011;47258;59.424;13.482;2023-03-01T07:55:36;1.75;;;0.82;;
46216;SDS011;47258;59.424;13.482;2023-03-01T07:58:04;2.33;;;0.70;;
46216;SDS011;47258;59.424;13.482;2023-03-01T08:00:31;0.85;;;0.55;;
46216;SDS011;47258;59.424;13.482;2023-03-01T08:02:58;1.13;;;0.70;;
46216;SDS011;47258;59.424;13.482;2023-03-01T08:05:26;0.40;;;0.40;;
46216;SDS011;47258;59.424;13.482;2023-03-01T08:07:55;0.98;;;0.25;;
46216;SDS011;47258;59.424;13.482;2023-03-01T08:10:22;2.08;;;0.25;;
46216;SDS011;47258;59.424;13.482;2023-03-01T08:12:50;1.58;;;0.95;;
46216;SDS011;47258;59.424;13.482;2023-03-01T08:15:18;0.40;;;0.40;;
46216;SDS011;47258;59.424;13.482;2023-03-01T08:17:45;1.95;;;0.57;;
46216;SDS011;47258;59.424;13.482;2023-03-01T08:20:16;0.30;;;0.30;;
46216;SDS011;47258;59.424;13.482;2023-03-01T08:22:43;0.63;;;0.35;;
46216;SDS011;47258;59.424;13.482;2023-03-01T08:25:11;1.02;;;0.43;;
46216;SDS011;47258;59.424;13.482;2023-03-01T08:27:38;1.38;;;0.47;;
46216;SDS011;47258;59.424;13.482;2023-03-01T08:30:06;0.60;;;0.57;;
46216;SDS011;47258;59.424;13.482;2023-03-01T08:32:37;2.17;;;0.75;;
46216;SDS011;47258;59.424;13.482;2023-03-01T08:35:05;1.27;;;1.00;;
46216;SDS011;47258;59.424;13.482;2023-03-01T08:37:33;29.02;;;2.33;;
46216;SDS011;47258;59.424;13.482;2023-03-01T08:40:00;0.82;;;0.55;;
46216;SDS011;47258;59.424;13.482;2023-03-01T08:42:30;1.60;;;0.77;;
46216;SDS011;47258;59.424;13.482;2023-03-01T08:44:58;0.70;;;0.70;;
46216;SDS011;47258;59.424;13.482;2023-03-01T08:47:25;1.42;;;0.82;;
46216;SDS011;47258;59.424;13.482;2023-03-01T08:49:52;1.85;;;1.27;;
46216;SDS011;47258;59.424;13.482;2023-03-01T08:52:19;1.23;;;1.10;;
46216;SDS011;47258;59.424;13.482;2023-03-01T08:54:47;3.97;;;2.75;;
46216;SDS011;47258;59.424;13.482;2023-03-01T08:57:15;8.90;;;5.30;;
46216;SDS011;47258;59.424;13.482;2023-03-01T08:59:43;3.67;;;2.53;;
46216;SDS011;47258;59.424;13.482;2023-03-01T09:02:11;2.97;;;0.63;;
46216;SDS011;47258;59.424;13.482;2023-03-01T09:04:39;1.85;;;1.00;;
46216;SDS011;47258;59.424;13.482;2023-03-01T09:07:06;2.03;;;1.90;;
46216;SDS011;47258;59.424;13.482;2023-03-01T09:09:34;0.50;;;0.45;;
46216;SDS011;47258;59.424;13.482;2023-03-01T09:12:03;1.02;;;1.02;;
46216;SDS011;47258;59.424;13.482;2023-03-01T09:14:30;0.30;;;0.30;;
46216;SDS011;47258;59.424;13.482;2023-03-01T09:16:59;1.00;;;0.50;;
46216;SDS011;47258;59.424;13.482;2023-03-01T09:19:28;0.25;;;0.25;;
46216;SDS011;47258;59.424;13.482;2023-03-01T09:21:55;0.10;;;0.10;;
46216;SDS011;47258;59.424;13.482;2023-03-01T09:24:23;0.90;;;0.40;;
46216;SDS011;47258;59.424;13.482;2023-03-01T09:26:52;0.25;;;0.25;;
46216;SDS011;47258;59.424;13.482;2023-03-01T09:29:20;0.25;;;0.10;;
46216;SDS011;47258;59.424;13.482;2023-03-01T09:31:47;0.10;;;0.10;;
46216;SDS011;47258;59.424;13.482;2023-03-01T09:34:16;0.30;;;0.30;;
46216;SDS011;47258;59.424;13.482;2023-03-01T09:36:48;0.60;;;0.30;;
46216;SDS011;47258;59.424;13.482;2023-03-01T09:39:16;0.32;;;0.10;;
46216;SDS011;47258;59.424;13.482;2023-03-01T09:41:45;0.43;;;0.20;;
46216;SDS011;47258;59.424;13.482;2023-03-01T09:44:21;0.15;;;0.15;;
46216;SDS011;47258;59.424;13.482;2023-03-01T09:46:55;0.25;;;0.15;;
46216;SDS011;47258;59.424;13.482;2023-03-01T09:49:24;2.08;;;0.52;;
46216;SDS011;47258;59.424;13.482;2023-03-01T09:51:58;1.45;;;0.28;;
46216;SDS011;47258;59.424;13.482;2023-03-01T09:54:27;0.28;;;0.10;;
46216;SDS011;47258;59.424;13.482;2023-03-01T09:56:59;0.30;;;0.30;;
46216;SDS011;47258;59.424;13.482;2023-03-01T09:59:35;0.40;;;0.08;;
46216;SDS011;47258;59.424;13.482;2023-03-01T10:02:16;0.10;;;0.10;;
46216;SDS011;47258;59.424;13.482;2023-03-01T10:04:55;1.65;;;0.20;;
46216;SDS011;47258;59.424;13.482;2023-03-01T10:07:32;1.48;;;0.13;;
46216;SDS011;47258;59.424;13.482;2023-03-01T10:10:05;1.13;;;0.57;;
46216;SDS011;47258;59.424;13.482;2023-03-01T10:12:35;0.60;;;0.20;;
46216;SDS011;47258;59.424;13.482;2023-03-01T10:15:06;0.28;;;0.17;;
46216;SDS011;47258;59.424;13.482;2023-03-01T10:17:38;0.20;;;0.20;;
46216;SDS011;47258;59.424;13.482;2023-03-01T10:20:14;0.50;;;0.45;;
46216;SDS011;47258;59.424;13.482;2023-03-01T10:22:44;4.38;;;0.50;;
46216;SDS011;47258;59.424;13.482;2023-03-01T10:25:15;0.25;;;0.25;;
46216;SDS011;47258;59.424;13.482;2023-03-01T10:27:51;0.10;;;0.10;;
46216;SDS011;47258;59.424;13.482;2023-03-01T10:30:20;0.20;;;0.20;;
46216;SDS011;47258;59.424;13.482;2023-03-01T10:32:53;0.85;;;0.28;;
46216;SDS011;47258;59.424;13.482;2023-03-01T10:35:22;0.35;;;0.30;;
46216;SDS011;47258;59.424;13.482;2023-03-01T10:37:57;0.77;;;0.25;;
46216;SDS011;47258;59.424;13.482;2023-03-01T10:40:28;0.30;;;0.30;;
46216;SDS011;47258;59.424;13.482;2023-03-01T10:42:57;0.45;;;0.25;;
46216;SDS011;47258;59.424;13.482;2023-03-01T10:45:30;0.75;;;0.20;;
46216;SDS011;47258;59.424;13.482;2023-03-01T10:50:46;0.40;;;0.40;;
46216;SDS011;47258;59.424;13.482;2023-03-01T10:53:22;0.40;;;0.40;;
46216;SDS011;47258;59.424;13.482;2023-03-01T10:55:58;0.65;;;0.32;;
46216;SDS011;47258;59.424;13.482;2023-03-01T10:58:27;3.17;;;0.45;;
46216;SDS011;47258;59.424;13.482;2023-03-01T11:00:56;0.32;;;0.32;;
46216;SDS011;47258;59.424;13.482;2023-03-01T11:03:25;0.10;;;0.10;;
46216;SDS011;47258;59.424;13.482;2023-03-01T11:06:00;0.20;;;0.20;;
46216;SDS011;47258;59.424;13.482;2023-03-01T11:08:33;0.10;;;0.10;;
46216;SDS011;47258;59.424;13.482;2023-03-01T11:13:53;0.52;;;0.28;;
46216;SDS011;47258;59.424;13.482;2023-03-01T11:16:30;0.20;;;0.20;;
46216;SDS011;47258;59.424;13.482;2023-03-01T11:19:07;0.10;;;0.10;;
46216;SDS011;47258;59.424;13.482;2023-03-01T11:21:47;0.22;;;0.15;;
46216;SDS011;47258;59.424;13.482;2023-03-01T11:24:22;0.10;;;0.10;;
46216;SDS011;47258;59.424;13.482;2023-03-01T11:26:54;0.15;;;0.15;;
46216;SDS011;47258;59.424;13.482;2023-03-01T11:29:25;0.10;;;0.10;;
46216;SDS011;47258;59.424;13.482;2023-03-01T11:31:57;0.25;;;0.10;;
46216;SDS011;47258;59.424;13.482;2023-03-01T11:34:31;0.10;;;0.10;;
46216;SDS011;47258;59.424;13.482;2023-03-01T11:37:09;1.95;;;0.20;;
46216;SDS011;47258;59.424;13.482;2023-03-01T11:39:51;0.10;;;0.10;;
46216;SDS011;47258;59.424;13.482;2023-03-01T11:42:28;0.22;;;0.10;;
46216;SDS011;47258;59.424;13.482;2023-03-01T11:45:06;2.07;;;0.30;;
46216;SDS011;47258;59.424;13.482;2023-03-01T11:47:41;1.65;;;0.15;;
46216;SDS011;47258;59.424;13.482;2023-03-01T11:50:25;0.17;;;0.10;;
46216;SDS011;47258;59.424;13.482;2023-03-01T11:53:01;0.30;;;0.30;;
46216;SDS011;47258;59.424;13.482;2023-03-01T11:55:54;0.10;;;0.10;;
46216;SDS011;47258;59.424;13.482;2023-03-01T11:58:38;0.85;;;0.50;;
46216;SDS011;47258;59.424;13.482;2023-03-01T12:01:32;2.28;;;0.47;;
46216;SDS011;47258;59.424;13.482;2023-03-01T12:04:18;0.20;;;0.10;;
46216;SDS011;47258;59.424;13.482;2023-03-01T12:07:05;0.70;;;0.50;;
46216;SDS011;47258;59.424;13.482;2023-03-01T12:09:48;0.17;;;0.17;;
46216;SDS011;47258;59.424;13.482;2023-03-01T12:12:30;0.77;;;0.70;;
46216;SDS011;47258;59.424;13.482;2023-03-01T12:15:10;0.20;;;0.20;;
46216;SDS011;47258;59.424;13.482;2023-03-01T12:17:57;0.15;;;0.15;;
46216;SDS011;47258;59.424;13.482;2023-03-01T12:20:45;2.00;;;0.10;;
46216;SDS011;47258;59.424;13.482;2023-03-01T12:23:25;2.25;;;0.47;;
46216;SDS011;47258;59.424;13.482;2023-03-01T12:26:16;0.73;;;0.20;;
46216;SDS011;47258;59.424;13.482;2023-03-01T12:29:01;0.10;;;0.10;;
46216;SDS011;47258;59.424;13.482;2023-03-01T12:31:44;0.50;;;0.28;;
46216;SDS011;47258;59.424;13.482;2023-03-01T12:34:29;1.10;;;0.32;;
46216;SDS011;47258;59.424;13.482;2023-03-01T12:37:11;0.25;;;0.10;;
46216;SDS011;47258;59.424;13.482;2023-03-01T12:39:51;0.55;;;0.20;;
46216;SDS011;47258;59.424;13.482;2023-03-01T12:42:33;0.75;;;0.30;;
46216;SDS011;47258;59.424;13.482;2023-03-01T12:45:18;1.05;;;0.40;;
46216;SDS011;47258;59.424;13.482;2023-03-01T12:48:04;0.40;;;0.25;;
46216;SDS011;47258;59.424;13.482;2023-03-01T12:50:47;0.70;;;0.30;;
46216;SDS011;47258;59.424;13.482;2023-03-01T12:53:20;0.10;;;0.10;;
46216;SDS011;47258;59.424;13.482;2023-03-01T12:55:50;0.80;;;0.20;;
46216;SDS011;47258;59.424;13.482;2023-03-01T12:58:23;0.10;;;0.10;;
46216;SDS011;47258;59.424;13.482;2023-03-01T13:01:05;0.75;;;0.13;;
46216;SDS011;47258;59.424;13.482;2023-03-01T13:03:51;1.13;;;0.35;;
46216;SDS011;47258;59.424;13.482;2023-03-01T13:06:34;0.28;;;0.10;;
46216;SDS011;47258;59.424;13.482;2023-03-01T13:09:08;0.25;;;0.13;;
46216;SDS011;47258;59.424;13.482;2023-03-01T13:11:43;1.10;;;0.17;;
46216;SDS011;47258;59.424;13.482;2023-03-01T13:19:59;0.10;;;0.10;;
46216;SDS011;47258;59.424;13.482;2023-03-01T13:22:28;0.57;;;0.17;;
46216;SDS011;47258;59.424;13.482;2023-03-01T13:25:01;0.50;;;0.20;;
46216;SDS011;47258;59.424;13.482;2023-03-01T13:27:38;0.10;;;0.10;;
46216;SDS011;47258;59.424;13.482;2023-03-01T13:30:12;0.47;;;0.10;;
46216;SDS011;47258;59.424;13.482;2023-03-01T13:36:08;2.65;;;0.17;;
46216;SDS011;47258;59.424;13.482;2023-03-01T13:38:41;0.20;;;0.20;;
46216;SDS011;47258;59.424;13.482;2023-03-01T13:41:13;3.53;;;0.22;;
46216;SDS011;47258;59.424;13.482;2023-03-01T13:43:41;0.80;;;0.20;;
46216;SDS011;47258;59.424;13.482;2023-03-01T13:46:12;0.47;;;0.25;;
46216;SDS011;47258;59.424;13.482;2023-03-01T13:48:44;1.58;;;0.50;;
46216;SDS011;47258;59.424;13.482;2023-03-01T13:51:13;0.20;;;0.10;;
46216;SDS011;47258;59.424;13.482;2023-03-01T13:53:42;0.00;;;0.00;;
46216;SDS011;47258;59.424;13.482;2023-03-01T13:56:13;0.00;;;0.00;;
46216;SDS011;47258;59.424;13.482;2023-03-01T13:58:44;0.22;;;0.17;;
46216;SDS011;47258;59.424;13.482;2023-03-01T14:01:23;0.08;;;0.08;;
46216;SDS011;47258;59.424;13.482;2023-03-01T14:03:53;0.20;;;0.10;;
46216;SDS011;47258;59.424;13.482;2023-03-01T14:06:21;0.25;;;0.10;;
46216;SDS011;47258;59.424;13.482;2023-03-01T14:08:50;0.38;;;0.25;;
46216;SDS011;47258;59.424;13.482;2023-03-01T14:11:40;0.22;;;0.20;;
46216;SDS011;47258;59.424;13.482;2023-03-01T14:14:29;0.88;;;0.10;;
46216;SDS011;47258;59.424;13.482;2023-03-01T14:17:15;0.28;;;0.22;;
46216;SDS011;47258;59.424;13.482;2023-03-01T14:20:08;1.00;;;0.20;;
46216;SDS011;47258;59.424;13.482;2023-03-01T14:22:38;0.75;;;0.20;;
46216;SDS011;47258;59.424;13.482;2023-03-01T14:25:16;1.98;;;0.10;;
46216;SDS011;47258;59.424;13.482;2023-03-01T14:27:54;0.20;;;0.03;;
46216;SDS011;47258;59.424;13.482;2023-03-01T14:30:27;0.43;;;0.43;;
46216;SDS011;47258;59.424;13.482;2023-03-01T14:32:59;1.70;;;0.10;;
46216;SDS011;47258;59.424;13.482;2023-03-01T14:35:29;0.57;;;0.32;;
46216;SDS011;47258;59.424;13.482;2023-03-01T14:37:57;0.10;;;0.10;;
46216;SDS011;47258;59.424;13.482;2023-03-01T14:40:25;2.25;;;0.30;;
46216;SDS011;47258;59.424;13.482;2023-03-01T14:42:55;0.85;;;0.20;;
46216;SDS011;47258;59.424;13.482;2023-03-01T14:45:25;0.25;;;0.13;;
46216;SDS011;47258;59.424;13.482;2023-03-01T14:47:53;0.20;;;0.20;;
46216;SDS011;47258;59.424;13.482;2023-03-01T14:50:24;0.68;;;0.20;;
46216;SDS011;47258;59.424;13.482;2023-03-01T14:52:54;0.75;;;0.30;;
46216;SDS011;47258;59.424;13.482;2023-03-01T14:55:25;1.05;;;0.45;;
46216;SDS011;47258;59.424;13.482;2023-03-01T14:57:56;0.10;;;0.10;;
46216;SDS011;47258;59.424;13.482;2023-03-01T15:00:24;1.23;;;0.20;;
46216;SDS011;47258;59.424;13.482;2023-03-01T15:02:54;1.77;;;0.30;;
46216;SDS011;47258;59.424;13.482;2023-03-01T15:05:25;1.08;;;0.30;;
46216;SDS011;47258;59.424;13.482;2023-03-01T15:07:56;1.45;;;0.60;;
46216;SDS011;47258;59.424;13.482;2023-03-01T15:10:27;4.55;;;0.20;;
46216;SDS011;47258;59.424;13.482;2023-03-01T15:12:55;0.75;;;0.30;;
46216;SDS011;47258;59.424;13.482;2023-03-01T15:15:35;1.13;;;0.40;;
46216;SDS011;47258;59.424;13.482;2023-03-01T15:18:13;1.60;;;0.40;;
46216;SDS011;47258;59.424;13.482;2023-03-01T15:20:45;0.30;;;0.20;;